KTIK/TIK METAR and TAF weather

Enter ICAO airport designator
Station Type Date Time Source
KTIK METAR 2019/12/10 14:56 UTC NOAA

KTIK 101456Z AUTO 01004KT 10SM CLR M01/M10 A3029 RMK AO2 SLP276 T10081105 52024


Station Type Date Time Source
KTIK Decoded METAR 2019/12/10 14:56 UTC NOAA

Tinker Air Force Base, OK, United States (KTIK) 35-25N 097-23W 397M
Dec 10, 2019 - 09:56 AM EST / 2019.12.10 1456 UTC
Wind: from the N (010 degrees) at 5 MPH (4 KT):0
Visibility: 10 mile(s):0
Sky conditions: clear
Temperature: 30.6 F (-0.8 C)
Windchill: 24 F (-4 C):1
Dew Point: 13.1 F (-10.5 C)
Relative Humidity: 47%
Pressure (altimeter): 30.29 in. Hg (1025 hPa)
Pressure tendency: 0.07 inches (2.4 hPa) higher than three hours ago
ob: KTIK 101456Z AUTO 01004KT 10SM CLR M01/M10 A3029 RMK AO2 SLP276 T10081105 52024
cycle: 15

Station Type Date Time Source
KTIK TAF 2019/12/10 10:09 UTC NOAA

TAF TAF KTIK 101000Z 1010/1116 02009KT 9999 FEW100 QNH3018INS
BECMG 1105/1106 19009KT 9999 SKC QNH3032INS TX08/1021Z TNM03/1011Z

Example: see airport list